sensor_id;sensor_type;location;lat;lon;timestamp;P1;P2;P0
23240;PMS7003;11789;53.482;9.862;2023-05-07T00:01:01;28.00;24.25;15.75
23240;PMS7003;11789;53.482;9.862;2023-05-07T00:03:27;27.75;26.25;16.25
23240;PMS7003;11789;53.482;9.862;2023-05-07T00:05:53;26.25;25.50;16.50
23240;PMS7003;11789;53.482;9.862;2023-05-07T00:08:18;25.25;23.00;14.75
23240;PMS7003;11789;53.482;9.862;2023-05-07T00:10:44;30.00;26.50;15.50
23240;PMS7003;11789;53.482;9.862;2023-05-07T00:13:10;23.25;20.25;15.75
23240;PMS7003;11789;53.482;9.862;2023-05-07T00:15:35;30.50;23.50;18.25
23240;PMS7003;11789;53.482;9.862;2023-05-07T00:18:00;25.25;24.75;17.00
23240;PMS7003;11789;53.482;9.862;2023-05-07T00:20:26;32.75;30.00;17.25
23240;PMS7003;11789;53.482;9.862;2023-05-07T00:22:51;29.50;25.00;17.00
23240;PMS7003;11789;53.482;9.862;2023-05-07T00:25:17;30.75;30.00;19.00
23240;PMS7003;11789;53.482;9.862;2023-05-07T00:27:44;20.75;20.75;14.00
23240;PMS7003;11789;53.482;9.862;2023-05-07T00:30:10;23.50;23.00;14.75
23240;PMS7003;11789;53.482;9.862;2023-05-07T00:32:36;30.25;23.75;15.00
23240;PMS7003;11789;53.482;9.862;2023-05-07T00:35:02;27.00;23.50;15.75
23240;PMS7003;11789;53.482;9.862;2023-05-07T00:37:28;21.00;18.00;11.00
23240;PMS7003;11789;53.482;9.862;2023-05-07T00:39:53;23.50;19.00;11.00
23240;PMS7003;11789;53.482;9.862;2023-05-07T00:42:19;24.00;19.00;14.00
23240;PMS7003;11789;53.482;9.862;2023-05-07T00:44:44;25.00;22.50;15.25
23240;PMS7003;11789;53.482;9.862;2023-05-07T00:47:10;18.50;18.50;13.00
23240;PMS7003;11789;53.482;9.862;2023-05-07T00:49:42;17.75;17.25;11.75
23240;PMS7003;11789;53.482;9.862;2023-05-07T00:52:10;24.00;21.50;15.00
23240;PMS7003;11789;53.482;9.862;2023-05-07T00:54:38;23.75;20.00;13.00
23240;PMS7003;11789;53.482;9.862;2023-05-07T00:57:06;24.25;22.50;13.00
23240;PMS7003;11789;53.482;9.862;2023-05-07T00:59:31;21.25;21.25;15.00
23240;PMS7003;11789;53.482;9.862;2023-05-07T01:01:58;24.50;22.50;15.00
23240;PMS7003;11789;53.482;9.862;2023-05-07T01:04:24;23.00;20.50;13.00
23240;PMS7003;11789;53.482;9.862;2023-05-07T01:06:49;22.25;20.50;13.50
23240;PMS7003;11789;53.482;9.862;2023-05-07T01:09:16;16.50;16.50;11.00
23240;PMS7003;11789;53.482;9.862;2023-05-07T01:11:45;16.25;14.00;8.75
23240;PMS7003;11789;53.482;9.862;2023-05-07T01:14:11;18.50;17.25;11.75
23240;PMS7003;11789;53.482;9.862;2023-05-07T01:16:37;17.50;15.75;9.25
23240;PMS7003;11789;53.482;9.862;2023-05-07T01:19:03;19.25;16.25;12.50
23240;PMS7003;11789;53.482;9.862;2023-05-07T01:21:30;21.00;18.25;13.00
23240;PMS7003;11789;53.482;9.862;2023-05-07T01:23:58;22.25;19.00;12.25
23240;PMS7003;11789;53.482;9.862;2023-05-07T01:26:24;21.75;19.25;13.75
23240;PMS7003;11789;53.482;9.862;2023-05-07T01:28:49;19.75;18.50;12.75
23240;PMS7003;11789;53.482;9.862;2023-05-07T01:31:15;19.75;18.00;11.25
23240;PMS7003;11789;53.482;9.862;2023-05-07T01:33:42;19.00;16.00;11.00
23240;PMS7003;11789;53.482;9.862;2023-05-07T01:36:11;17.00;17.00;11.00
23240;PMS7003;11789;53.482;9.862;2023-05-07T01:38:38;15.00;15.00;11.25
23240;PMS7003;11789;53.482;9.862;2023-05-07T01:41:06;18.50;17.00;11.50
23240;PMS7003;11789;53.482;9.862;2023-05-07T01:43:32;23.75;23.50;13.50
23240;PMS7003;11789;53.482;9.862;2023-05-07T01:45:58;19.75;19.50;14.25
23240;PMS7003;11789;53.482;9.862;2023-05-07T01:48:25;23.25;18.75;13.00
23240;PMS7003;11789;53.482;9.862;2023-05-07T01:50:51;17.75;14.25;8.75
23240;PMS7003;11789;53.482;9.862;2023-05-07T01:53:17;17.75;16.25;10.75
23240;PMS7003;11789;53.482;9.862;2023-05-07T01:55:43;24.75;21.00;12.00
23240;PMS7003;11789;53.482;9.862;2023-05-07T01:58:08;17.25;17.25;13.75
23240;PMS7003;11789;53.482;9.862;2023-05-07T02:00:34;22.75;20.75;13.75
23240;PMS7003;11789;53.482;9.862;2023-05-07T02:02:59;24.25;20.00;13.00
23240;PMS7003;11789;53.482;9.862;2023-05-07T02:05:25;19.50;19.25;14.00
23240;PMS7003;11789;53.482;9.862;2023-05-07T02:07:50;19.50;19.50;13.50
23240;PMS7003;11789;53.482;9.862;2023-05-07T02:10:16;19.25;19.25;14.00
23240;PMS7003;11789;53.482;9.862;2023-05-07T02:12:41;19.00;19.00;14.00
23240;PMS7003;11789;53.482;9.862;2023-05-07T02:15:08;16.75;16.75;9.50
23240;PMS7003;11789;53.482;9.862;2023-05-07T02:17:33;19.75;17.75;11.25
23240;PMS7003;11789;53.482;9.862;2023-05-07T02:19:59;19.75;18.75;14.25
23240;PMS7003;11789;53.482;9.862;2023-05-07T02:22:25;19.50;17.75;13.00
23240;PMS7003;11789;53.482;9.862;2023-05-07T02:24:50;22.25;20.25;13.75
23240;PMS7003;11789;53.482;9.862;2023-05-07T02:27:16;20.00;20.00;13.75
23240;PMS7003;11789;53.482;9.862;2023-05-07T02:29:41;19.75;18.75;13.00
23240;PMS7003;11789;53.482;9.862;2023-05-07T02:32:07;21.25;18.25;13.00
23240;PMS7003;11789;53.482;9.862;2023-05-07T02:34:32;21.00;19.00;13.00
23240;PMS7003;11789;53.482;9.862;2023-05-07T02:36:58;22.50;21.00;13.75
23240;PMS7003;11789;53.482;9.862;2023-05-07T02:39:23;19.50;17.00;12.00
23240;PMS7003;11789;53.482;9.862;2023-05-07T02:41:49;18.50;18.00;13.00
23240;PMS7003;11789;53.482;9.862;2023-05-07T02:44:14;19.00;18.25;13.50
23240;PMS7003;11789;53.482;9.862;2023-05-07T02:46:40;21.00;20.50;14.25
23240;PMS7003;11789;53.482;9.862;2023-05-07T02:49:05;22.75;19.50;13.50
23240;PMS7003;11789;53.482;9.862;2023-05-07T02:51:31;22.50;21.50;14.25
23240;PMS7003;11789;53.482;9.862;2023-05-07T02:53:56;14.75;14.75;11.25
23240;PMS7003;11789;53.482;9.862;2023-05-07T02:56:22;20.25;20.25;14.00
23240;PMS7003;11789;53.482;9.862;2023-05-07T02:58:47;19.25;19.25;12.75
23240;PMS7003;11789;53.482;9.862;2023-05-07T03:01:13;26.25;21.75;13.75
23240;PMS7003;11789;53.482;9.862;2023-05-07T03:03:39;22.75;21.25;15.00
23240;PMS7003;11789;53.482;9.862;2023-05-07T03:06:04;19.75;18.25;14.00
23240;PMS7003;11789;53.482;9.862;2023-05-07T03:08:30;22.25;19.75;13.50
23240;PMS7003;11789;53.482;9.862;2023-05-07T03:10:56;22.25;19.75;10.75
23240;PMS7003;11789;53.482;9.862;2023-05-07T03:13:21;20.00;18.75;14.00
23240;PMS7003;11789;53.482;9.862;2023-05-07T03:15:47;19.50;18.75;13.00
23240;PMS7003;11789;53.482;9.862;2023-05-07T03:18:12;21.75;20.75;14.75
23240;PMS7003;11789;53.482;9.862;2023-05-07T03:20:37;21.75;21.75;14.75
23240;PMS7003;11789;53.482;9.862;2023-05-07T03:23:03;22.50;22.50;15.00
23240;PMS7003;11789;53.482;9.862;2023-05-07T03:25:29;20.75;18.50;14.00
23240;PMS7003;11789;53.482;9.862;2023-05-07T03:27:55;22.00;19.50;13.50
23240;PMS7003;11789;53.482;9.862;2023-05-07T03:30:21;19.50;18.25;13.50
23240;PMS7003;11789;53.482;9.862;2023-05-07T03:32:47;31.25;28.00;15.75
23240;PMS7003;11789;53.482;9.862;2023-05-07T03:35:13;23.00;23.00;15.00
23240;PMS7003;11789;53.482;9.862;2023-05-07T03:37:38;22.75;22.50;15.25
23240;PMS7003;11789;53.482;9.862;2023-05-07T03:40:05;23.00;19.50;10.75
23240;PMS7003;11789;53.482;9.862;2023-05-07T03:42:31;23.25;23.00;15.00
23240;PMS7003;11789;53.482;9.862;2023-05-07T03:44:57;23.50;21.75;15.00
23240;PMS7003;11789;53.482;9.862;2023-05-07T03:47:22;25.00;24.00;16.00
23240;PMS7003;11789;53.482;9.862;2023-05-07T03:49:47;27.00;24.25;15.25
23240;PMS7003;11789;53.482;9.862;2023-05-07T03:52:14;24.50;22.00;15.00
23240;PMS7003;11789;53.482;9.862;2023-05-07T03:54:40;26.00;20.25;14.00
23240;PMS7003;11789;53.482;9.862;2023-05-07T03:57:05;29.00;22.25;14.50
23240;PMS7003;11789;53.482;9.862;2023-05-07T03:59:31;18.00;18.00;14.75
23240;PMS7003;11789;53.482;9.862;2023-05-07T04:01:56;27.25;21.00;14.25
23240;PMS7003;11789;53.482;9.862;2023-05-07T04:04:21;23.25;22.25;13.25
23240;PMS7003;11789;53.482;9.862;2023-05-07T04:06:47;26.25;22.50;15.00
23240;PMS7003;11789;53.482;9.862;2023-05-07T04:09:12;20.00;19.50;15.00
23240;PMS7003;11789;53.482;9.862;2023-05-07T04:11:38;20.75;20.75;13.50
23240;PMS7003;11789;53.482;9.862;2023-05-07T04:14:05;24.50;23.50;14.75
23240;PMS7003;11789;53.482;9.862;2023-05-07T04:16:31;27.00;24.75;15.75
23240;PMS7003;11789;53.482;9.862;2023-05-07T04:18:57;26.25;23.50;15.25
23240;PMS7003;11789;53.482;9.862;2023-05-07T04:21:22;23.50;22.00;15.00
23240;PMS7003;11789;53.482;9.862;2023-05-07T04:23:48;25.75;25.50;15.50
23240;PMS7003;11789;53.482;9.862;2023-05-07T04:26:14;25.75;23.75;15.75
23240;PMS7003;11789;53.482;9.862;2023-05-07T04:28:40;19.50;18.25;13.00
23240;PMS7003;11789;53.482;9.862;2023-05-07T04:31:05;27.50;23.75;14.25
23240;PMS7003;11789;53.482;9.862;2023-05-07T04:33:31;23.75;23.75;15.50
23240;PMS7003;11789;53.482;9.862;2023-05-07T04:35:58;22.00;22.00;14.50
23240;PMS7003;11789;53.482;9.862;2023-05-07T04:38:28;20.50;19.25;14.00
23240;PMS7003;11789;53.482;9.862;2023-05-07T04:40:55;18.50;18.50;14.75
23240;PMS7003;11789;53.482;9.862;2023-05-07T04:43:21;24.00;20.00;14.00
23240;PMS7003;11789;53.482;9.862;2023-05-07T04:45:46;8.50;7.50;0.00
23240;PMS7003;11789;53.482;9.862;2023-05-07T04:48:11;23.25;22.50;16.25
23240;PMS7003;11789;53.482;9.862;2023-05-07T04:50:39;25.00;20.75;15.00
23240;PMS7003;11789;53.482;9.862;2023-05-07T04:53:05;23.00;22.25;16.25
23240;PMS7003;11789;53.482;9.862;2023-05-07T04:55:30;24.75;20.50;14.00
23240;PMS7003;11789;53.482;9.862;2023-05-07T04:57:56;21.75;20.75;12.75
23240;PMS7003;11789;53.482;9.862;2023-05-07T05:00:21;18.75;18.75;13.00
23240;PMS7003;11789;53.482;9.862;2023-05-07T05:02:47;24.75;21.75;14.50
23240;PMS7003;11789;53.482;9.862;2023-05-07T05:05:13;25.50;24.25;15.75
23240;PMS7003;11789;53.482;9.862;2023-05-07T05:07:38;20.00;20.00;14.50
23240;PMS7003;11789;53.482;9.862;2023-05-07T05:10:04;24.75;21.25;14.00
23240;PMS7003;11789;53.482;9.862;2023-05-07T05:12:33;25.00;22.00;14.00
23240;PMS7003;11789;53.482;9.862;2023-05-07T05:14:59;21.25;21.25;14.00
23240;PMS7003;11789;53.482;9.862;2023-05-07T05:17:24;23.25;23.25;13.50
23240;PMS7003;11789;53.482;9.862;2023-05-07T05:19:50;21.50;20.00;14.00
23240;PMS7003;11789;53.482;9.862;2023-05-07T05:22:15;25.75;23.75;14.25
23240;PMS7003;11789;53.482;9.862;2023-05-07T05:24:41;20.75;19.00;12.00
23240;PMS7003;11789;53.482;9.862;2023-05-07T05:27:06;24.50;23.25;15.50
23240;PMS7003;11789;53.482;9.862;2023-05-07T05:29:32;20.25;20.25;14.00
23240;PMS7003;11789;53.482;9.862;2023-05-07T05:31:57;22.25;22.25;15.00
23240;PMS7003;11789;53.482;9.862;2023-05-07T05:34:23;22.25;21.00;12.25
23240;PMS7003;11789;53.482;9.862;2023-05-07T05:36:48;27.00;21.50;12.75
23240;PMS7003;11789;53.482;9.862;2023-05-07T05:39:13;22.75;21.75;15.25
23240;PMS7003;11789;53.482;9.862;2023-05-07T05:41:39;23.75;23.00;14.50
23240;PMS7003;11789;53.482;9.862;2023-05-07T05:44:05;23.75;22.25;15.75
23240;PMS7003;11789;53.482;9.862;2023-05-07T05:46:30;19.75;19.75;14.75
23240;PMS7003;11789;53.482;9.862;2023-05-07T05:48:56;21.00;20.25;15.75
23240;PMS7003;11789;53.482;9.862;2023-05-07T05:51:22;24.75;24.75;16.25
23240;PMS7003;11789;53.482;9.862;2023-05-07T05:53:48;23.00;20.75;14.00
23240;PMS7003;11789;53.482;9.862;2023-05-07T05:56:13;22.00;22.00;15.25
23240;PMS7003;11789;53.482;9.862;2023-05-07T05:58:40;20.25;20.25;14.50
23240;PMS7003;11789;53.482;9.862;2023-05-07T06:01:07;26.75;25.00;16.25
23240;PMS7003;11789;53.482;9.862;2023-05-07T06:03:33;28.50;25.50;16.00
23240;PMS7003;11789;53.482;9.862;2023-05-07T06:05:58;20.75;19.50;11.25
23240;PMS7003;11789;53.482;9.862;2023-05-07T06:08:25;22.50;19.25;12.50
23240;PMS7003;11789;53.482;9.862;2023-05-07T06:10:51;21.50;20.50;14.50
23240;PMS7003;11789;53.482;9.862;2023-05-07T06:13:16;27.00;23.25;15.50
23240;PMS7003;11789;53.482;9.862;2023-05-07T06:15:42;22.00;20.25;14.25
23240;PMS7003;11789;53.482;9.862;2023-05-07T06:18:07;22.75;21.25;14.50
23240;PMS7003;11789;53.482;9.862;2023-05-07T06:20:33;23.50;22.25;15.75
23240;PMS7003;11789;53.482;9.862;2023-05-07T06:22:58;24.75;20.75;15.00
23240;PMS7003;11789;53.482;9.862;2023-05-07T06:25:23;22.00;22.00;16.25
23240;PMS7003;11789;53.482;9.862;2023-05-07T06:27:49;23.75;22.75;15.00
23240;PMS7003;11789;53.482;9.862;2023-05-07T06:30:14;22.50;22.25;15.25
23240;PMS7003;11789;53.482;9.862;2023-05-07T06:32:40;28.25;24.00;15.75
23240;PMS7003;11789;53.482;9.862;2023-05-07T06:35:12;30.25;26.25;16.00
23240;PMS7003;11789;53.482;9.862;2023-05-07T06:37:38;32.25;24.50;15.00
23240;PMS7003;11789;53.482;9.862;2023-05-07T06:40:05;26.25;21.50;12.00
23240;PMS7003;11789;53.482;9.862;2023-05-07T06:42:32;21.75;21.25;13.00
23240;PMS7003;11789;53.482;9.862;2023-05-07T06:44:57;22.00;20.75;13.50
23240;PMS7003;11789;53.482;9.862;2023-05-07T06:47:23;21.75;21.00;12.50
23240;PMS7003;11789;53.482;9.862;2023-05-07T06:49:48;23.00;22.75;14.25
23240;PMS7003;11789;53.482;9.862;2023-05-07T06:52:14;19.50;17.50;13.50
23240;PMS7003;11789;53.482;9.862;2023-05-07T06:54:39;22.25;20.00;13.00
23240;PMS7003;11789;53.482;9.862;2023-05-07T06:57:05;18.00;18.00;11.75
23240;PMS7003;11789;53.482;9.862;2023-05-07T06:59:30;24.00;22.00;13.00
23240;PMS7003;11789;53.482;9.862;2023-05-07T07:01:55;24.75;21.25;12.75
23240;PMS7003;11789;53.482;9.862;2023-05-07T07:04:21;22.00;19.75;14.00
23240;PMS7003;11789;53.482;9.862;2023-05-07T07:06:48;21.00;18.75;12.00
23240;PMS7003;11789;53.482;9.862;2023-05-07T07:09:13;17.50;17.50;11.00
23240;PMS7003;11789;53.482;9.862;2023-05-07T07:11:38;22.75;19.50;11.00
23240;PMS7003;11789;53.482;9.862;2023-05-07T07:14:04;23.50;20.50;14.25
23240;PMS7003;11789;53.482;9.862;2023-05-07T07:16:30;22.00;20.50;14.00
23240;PMS7003;11789;53.482;9.862;2023-05-07T07:18:59;19.50;19.50;12.00
23240;PMS7003;11789;53.482;9.862;2023-05-07T07:21:25;22.75;18.75;12.25
23240;PMS7003;11789;53.482;9.862;2023-05-07T07:23:50;18.75;18.75;12.00
23240;PMS7003;11789;53.482;9.862;2023-05-07T07:26:16;25.25;21.00;13.25
23240;PMS7003;11789;53.482;9.862;2023-05-07T07:28:43;23.25;20.00;12.00
23240;PMS7003;11789;53.482;9.862;2023-05-07T07:31:09;19.25;18.25;12.00
23240;PMS7003;11789;53.482;9.862;2023-05-07T07:33:34;22.25;22.25;14.00
23240;PMS7003;11789;53.482;9.862;2023-05-07T07:36:00;24.50;22.75;12.00
23240;PMS7003;11789;53.482;9.862;2023-05-07T07:38:25;23.25;22.50;13.50
23240;PMS7003;11789;53.482;9.862;2023-05-07T07:40:51;21.25;21.25;13.25
23240;PMS7003;11789;53.482;9.862;2023-05-07T07:43:16;18.50;18.50;13.50
23240;PMS7003;11789;53.482;9.862;2023-05-07T07:45:42;24.50;23.25;14.25
23240;PMS7003;11789;53.482;9.862;2023-05-07T07:48:10;22.75;20.00;12.75
23240;PMS7003;11789;53.482;9.862;2023-05-07T07:50:36;20.25;19.50;13.50
23240;PMS7003;11789;53.482;9.862;2023-05-07T07:53:01;18.75;18.75;11.75
23240;PMS7003;11789;53.482;9.862;2023-05-07T07:55:27;16.50;16.50;12.00
23240;PMS7003;11789;53.482;9.862;2023-05-07T07:57:52;21.25;19.25;10.75
23240;PMS7003;11789;53.482;9.862;2023-05-07T08:00:18;12.50;12.00;9.00
23240;PMS7003;11789;53.482;9.862;2023-05-07T08:02:43;18.75;18.75;12.00
23240;PMS7003;11789;53.482;9.862;2023-05-07T08:05:09;22.75;21.25;13.00
23240;PMS7003;11789;53.482;9.862;2023-05-07T08:07:34;17.75;15.50;10.75
23240;PMS7003;11789;53.482;9.862;2023-05-07T08:10:00;19.00;17.00;10.75
23240;PMS7003;11789;53.482;9.862;2023-05-07T08:12:25;15.75;15.75;11.25
23240;PMS7003;11789;53.482;9.862;2023-05-07T08:14:51;19.75;18.75;12.50
23240;PMS7003;11789;53.482;9.862;2023-05-07T08:17:16;20.75;17.25;13.00
23240;PMS7003;11789;53.482;9.862;2023-05-07T08:19:42;18.75;16.50;12.25
23240;PMS7003;11789;53.482;9.862;2023-05-07T08:22:08;21.50;18.25;11.75
23240;PMS7003;11789;53.482;9.862;2023-05-07T08:24:34;19.00;16.75;12.00
23240;PMS7003;11789;53.482;9.862;2023-05-07T08:27:00;19.00;17.50;11.50
23240;PMS7003;11789;53.482;9.862;2023-05-07T08:29:25;13.50;13.00;10.00
23240;PMS7003;11789;53.482;9.862;2023-05-07T08:31:50;14.75;14.75;11.00
23240;PMS7003;11789;53.482;9.862;2023-05-07T08:34:16;18.50;15.75;11.00
23240;PMS7003;11789;53.482;9.862;2023-05-07T08:36:41;19.75;19.00;13.75
23240;PMS7003;11789;53.482;9.862;2023-05-07T08:39:07;14.50;14.50;11.00
23240;PMS7003;11789;53.482;9.862;2023-05-07T08:41:32;20.75;18.25;12.00
23240;PMS7003;11789;53.482;9.862;2023-05-07T08:43:59;19.75;15.00;10.50
23240;PMS7003;11789;53.482;9.862;2023-05-07T08:46:29;16.25;14.75;11.00
23240;PMS7003;11789;53.482;9.862;2023-05-07T08:48:57;19.00;14.25;12.00
23240;PMS7003;11789;53.482;9.862;2023-05-07T08:51:22;16.00;16.00;11.75
23240;PMS7003;11789;53.482;9.862;2023-05-07T08:53:51;14.75;14.50;11.00
23240;PMS7003;11789;53.482;9.862;2023-05-07T08:56:16;12.50;12.50;8.00
23240;PMS7003;11789;53.482;9.862;2023-05-07T08:58:43;15.50;13.75;11.00
23240;PMS7003;11789;53.482;9.862;2023-05-07T09:01:10;14.75;14.50;10.50
23240;PMS7003;11789;53.482;9.862;2023-05-07T09:03:39;17.00;15.00;10.50
23240;PMS7003;11789;53.482;9.862;2023-05-07T09:06:06;14.50;13.25;10.25
23240;PMS7003;11789;53.482;9.862;2023-05-07T09:08:32;15.50;14.00;11.50
23240;PMS7003;11789;53.482;9.862;2023-05-07T09:10:59;13.25;13.00;11.50
23240;PMS7003;11789;53.482;9.862;2023-05-07T09:13:26;14.75;14.75;10.25
23240;PMS7003;11789;53.482;9.862;2023-05-07T09:15:54;16.25;15.25;12.00
23240;PMS7003;11789;53.482;9.862;2023-05-07T09:18:21;15.75;15.75;12.00
23240;PMS7003;11789;53.482;9.862;2023-05-07T09:20:48;20.25;17.00;11.75
23240;PMS7003;11789;53.482;9.862;2023-05-07T09:23:13;16.25;16.25;12.00
23240;PMS7003;11789;53.482;9.862;2023-05-07T09:25:39;16.00;16.00;11.00
23240;PMS7003;11789;53.482;9.862;2023-05-07T09:28:04;16.50;16.50;11.25
23240;PMS7003;11789;53.482;9.862;2023-05-07T09:30:32;17.25;15.75;11.75
23240;PMS7003;11789;53.482;9.862;2023-05-07T09:32:59;22.25;18.50;14.50
23240;PMS7003;11789;53.482;9.862;2023-05-07T09:35:26;16.50;16.50;13.00
23240;PMS7003;11789;53.482;9.862;2023-05-07T09:37:56;17.00;16.75;12.25
23240;PMS7003;11789;53.482;9.862;2023-05-07T09:40:24;18.75;18.75;14.75
23240;PMS7003;11789;53.482;9.862;2023-05-07T09:42:51;21.00;19.75;13.75
23240;PMS7003;11789;53.482;9.862;2023-05-07T09:45:26;17.75;17.75;13.75
23240;PMS7003;11789;53.482;9.862;2023-05-07T09:47:54;16.25;15.25;11.00
23240;PMS7003;11789;53.482;9.862;2023-05-07T09:50:25;21.75;16.25;12.25
23240;PMS7003;11789;53.482;9.862;2023-05-07T09:52:57;18.00;16.25;12.00
23240;PMS7003;11789;53.482;9.862;2023-05-07T09:55:23;18.00;16.50;13.00
23240;PMS7003;11789;53.482;9.862;2023-05-07T09:57:52;19.00;17.50;12.00
23240;PMS7003;11789;53.482;9.862;2023-05-07T10:00:19;17.25;17.25;12.00
23240;PMS7003;11789;53.482;9.862;2023-05-07T10:02:46;18.50;18.50;14.25
23240;PMS7003;11789;53.482;9.862;2023-05-07T10:05:14;18.25;18.25;12.00
23240;PMS7003;11789;53.482;9.862;2023-05-07T10:07:40;17.50;16.00;11.25
23240;PMS7003;11789;53.482;9.862;2023-05-07T10:10:06;19.50;19.50;14.00
23240;PMS7003;11789;53.482;9.862;2023-05-07T10:12:33;19.50;19.50;14.50
23240;PMS7003;11789;53.482;9.862;2023-05-07T10:15:13;22.00;19.25;13.00
23240;PMS7003;11789;53.482;9.862;2023-05-07T10:17:40;18.50;18.50;14.25
23240;PMS7003;11789;53.482;9.862;2023-05-07T10:20:06;19.50;19.50;13.25
23240;PMS7003;11789;53.482;9.862;2023-05-07T10:22:51;22.75;20.00;14.00
23240;PMS7003;11789;53.482;9.862;2023-05-07T10:25:23;18.75;18.75;13.00
23240;PMS7003;11789;53.482;9.862;2023-05-07T10:27:53;18.00;18.00;12.50
23240;PMS7003;11789;53.482;9.862;2023-05-07T10:33:11;21.25;18.00;13.00
23240;PMS7003;11789;53.482;9.862;2023-05-07T10:35:42;19.75;19.75;14.00
23240;PMS7003;11789;53.482;9.862;2023-05-07T10:38:10;19.75;19.75;13.25
23240;PMS7003;11789;53.482;9.862;2023-05-07T10:40:36;22.75;21.25;15.25
23240;PMS7003;11789;53.482;9.862;2023-05-07T10:43:02;16.75;16.75;13.00
23240;PMS7003;11789;53.482;9.862;2023-05-07T10:45:32;20.50;20.50;14.50
23240;PMS7003;11789;53.482;9.862;2023-05-07T10:48:10;19.00;19.00;14.00
23240;PMS7003;11789;53.482;9.862;2023-05-07T10:50:37;20.75;20.00;14.00
23240;PMS7003;11789;53.482;9.862;2023-05-07T10:53:26;19.25;17.50;14.50
23240;PMS7003;11789;53.482;9.862;2023-05-07T10:58:42;21.25;19.75;14.00
23240;PMS7003;11789;53.482;9.862;2023-05-07T11:01:08;21.50;18.50;13.00
23240;PMS7003;11789;53.482;9.862;2023-05-07T11:03:37;20.50;20.50;14.25
23240;PMS7003;11789;53.482;9.862;2023-05-07T11:06:39;18.00;18.00;13.00
23240;PMS7003;11789;53.482;9.862;2023-05-07T11:09:05;17.50;17.00;12.00
23240;PMS7003;11789;53.482;9.862;2023-05-07T11:11:46;18.50;17.50;9.00
23240;PMS7003;11789;53.482;9.862;2023-05-07T11:17:12;17.50;17.50;12.00
23240;PMS7003;11789;53.482;9.862;2023-05-07T11:19:50;18.75;17.75;13.00
23240;PMS7003;11789;53.482;9.862;2023-05-07T11:25:04;20.00;20.00;14.75
23240;PMS7003;11789;53.482;9.862;2023-05-07T11:27:33;17.00;17.00;12.00
23240;PMS7003;11789;53.482;9.862;2023-05-07T11:30:02;18.25;16.75;13.00
23240;PMS7003;11789;53.482;9.862;2023-05-07T11:32:29;18.25;17.50;13.00
23240;PMS7003;11789;53.482;9.862;2023-05-07T11:34:59;19.00;16.25;13.50
23240;PMS7003;11789;53.482;9.862;2023-05-07T11:37:26;18.75;17.75;12.75
23240;PMS7003;11789;53.482;9.862;2023-05-07T11:40:06;20.00;20.00;15.25
23240;PMS7003;11789;53.482;9.862;2023-05-07T11:42:36;20.75;17.50;13.25
23240;PMS7003;11789;53.482;9.862;2023-05-07T11:45:03;21.00;17.75;13.75
23240;PMS7003;11789;53.482;9.862;2023-05-07T11:47:31;17.50;17.50;13.50
23240;PMS7003;11789;53.482;9.862;2023-05-07T11:49:56;21.25;19.25;13.75
23240;PMS7003;11789;53.482;9.862;2023-05-07T11:52:28;18.75;18.75;12.50
23240;PMS7003;11789;53.482;9.862;2023-05-07T11:54:55;19.00;17.75;13.00
23240;PMS7003;11789;53.482;9.862;2023-05-07T11:57:25;16.25;16.25;13.00
23240;PMS7003;11789;53.482;9.862;2023-05-07T11:59:54;20.00;20.00;14.00
23240;PMS7003;11789;53.482;9.862;2023-05-07T12:02:20;22.00;20.25;14.00
23240;PMS7003;11789;53.482;9.862;2023-05-07T12:04:46;23.00;21.50;15.00
23240;PMS7003;11789;53.482;9.862;2023-05-07T12:07:14;25.75;24.00;16.50
23240;PMS7003;11789;53.482;9.862;2023-05-07T12:09:44;20.25;19.25;14.00
23240;PMS7003;11789;53.482;9.862;2023-05-07T12:12:11;15.50;14.00;11.50
23240;PMS7003;11789;53.482;9.862;2023-05-07T12:14:41;20.75;18.75;15.00
23240;PMS7003;11789;53.482;9.862;2023-05-07T12:17:07;20.00;18.00;13.50
23240;PMS7003;11789;53.482;9.862;2023-05-07T12:19:34;20.25;17.50;12.75
23240;PMS7003;11789;53.482;9.862;2023-05-07T12:22:03;21.75;19.75;15.00
23240;PMS7003;11789;53.482;9.862;2023-05-07T12:24:43;19.25;17.00;11.50
23240;PMS7003;11789;53.482;9.862;2023-05-07T12:27:10;14.00;14.00;11.00
23240;PMS7003;11789;53.482;9.862;2023-05-07T12:29:35;16.75;15.25;11.50
23240;PMS7003;11789;53.482;9.862;2023-05-07T12:32:01;18.00;16.50;12.25
23240;PMS7003;11789;53.482;9.862;2023-05-07T12:34:27;18.25;16.75;12.00
23240;PMS7003;11789;53.482;9.862;2023-05-07T12:36:54;12.50;12.50;11.25
23240;PMS7003;11789;53.482;9.862;2023-05-07T12:39:20;39.25;31.50;18.50
23240;PMS7003;11789;53.482;9.862;2023-05-07T12:41:52;18.00;18.00;12.00
23240;PMS7003;11789;53.482;9.862;2023-05-07T12:44:31;15.25;14.50;11.50
23240;PMS7003;11789;53.482;9.862;2023-05-07T12:47:02;16.75;13.25;9.75
23240;PMS7003;11789;53.482;9.862;2023-05-07T12:49:28;16.75;16.75;11.50
23240;PMS7003;11789;53.482;9.862;2023-05-07T12:51:54;15.00;15.00;10.75
23240;PMS7003;11789;53.482;9.862;2023-05-07T12:54:30;18.25;18.25;12.25
23240;PMS7003;11789;53.482;9.862;2023-05-07T12:57:03;16.00;16.00;12.50
23240;PMS7003;11789;53.482;9.862;2023-05-07T12:59:31;16.00;15.00;11.25
23240;PMS7003;11789;53.482;9.862;2023-05-07T13:02:07;15.25;14.00;8.75
23240;PMS7003;11789;53.482;9.862;2023-05-07T13:04:33;11.25;11.25;9.50
23240;PMS7003;11789;53.482;9.862;2023-05-07T13:07:00;14.00;14.00;9.50
23240;PMS7003;11789;53.482;9.862;2023-05-07T13:09:26;12.00;10.50;9.00
23240;PMS7003;11789;53.482;9.862;2023-05-07T13:11:53;11.50;11.50;9.25
23240;PMS7003;11789;53.482;9.862;2023-05-07T13:14:19;9.00;9.00;5.50
23240;PMS7003;11789;53.482;9.862;2023-05-07T13:16:46;13.75;12.50;10.00
23240;PMS7003;11789;53.482;9.862;2023-05-07T13:19:13;10.25;10.00;9.00
23240;PMS7003;11789;53.482;9.862;2023-05-07T13:21:39;13.25;11.50;8.75
23240;PMS7003;11789;53.482;9.862;2023-05-07T13:24:04;12.25;12.25;10.00
23240;PMS7003;11789;53.482;9.862;2023-05-07T13:26:30;13.00;13.00;9.25
23240;PMS7003;11789;53.482;9.862;2023-05-07T13:28:56;11.75;10.50;8.50
23240;PMS7003;11789;53.482;9.862;2023-05-07T13:31:21;11.25;11.25;8.50
23240;PMS7003;11789;53.482;9.862;2023-05-07T13:33:47;13.00;13.00;9.50
23240;PMS7003;11789;53.482;9.862;2023-05-07T13:36:13;10.75;10.75;8.25
23240;PMS7003;11789;53.482;9.862;2023-05-07T13:38:39;12.00;10.50;7.50
23240;PMS7003;11789;53.482;9.862;2023-05-07T13:41:05;9.00;8.25;7.50
23240;PMS7003;11789;53.482;9.862;2023-05-07T13:43:30;13.00;10.50;8.50
23240;PMS7003;11789;53.482;9.862;2023-05-07T13:45:59;11.25;9.50;8.00
23240;PMS7003;11789;53.482;9.862;2023-05-07T13:48:25;5.00;5.00;4.00
23240;PMS7003;11789;53.482;9.862;2023-05-07T13:50:51;10.75;9.25;8.00
23240;PMS7003;11789;53.482;9.862;2023-05-07T13:53:17;10.75;10.75;8.75
23240;PMS7003;11789;53.482;9.862;2023-05-07T13:55:43;8.25;6.50;6.00